Time;durP1;ratioP1;P1;durP2;ratioP2;P2;SDS_P1;SDS_P2;PMS_P1;PMS_P2;Temp;Humidity;BMP_temperature;BMP_pressure;BME280_temperature;BME280_humidity;BME280_pressure;Samples;Min_cycle;Max_cycle;Signal;HPM_P1;HPM_P2
2024/05/01 00:01:47;;;;;;;;;;;21.10;47.90;;;;;;5456861;26;1473;-87
2024/05/01 00:04:12;;;;;;;;;;;21.10;47.90;;;;;;5438609;26;1335;-88
2024/05/01 00:06:38;;;;;;;;;;;21.10;47.90;;;;;;5420953;26;1885;-88
2024/05/01 00:09:03;;;;;;;;;;;21.10;47.90;;;;;;5421629;26;1048;-88
2024/05/01 00:11:28;;;;;;;;;;;21.10;47.90;;;;;;5426131;26;1589;-88
2024/05/01 00:13:54;;;;;;;;;;;21.10;47.80;;;;;;5424077;26;1470;-88
2024/05/01 00:16:19;;;;;;;;;;;21.10;47.80;;;;;;5471794;26;1495;-88
2024/05/01 00:18:44;;;;;;;;;;;21.10;47.70;;;;;;5457015;26;1163;-88
2024/05/01 00:21:11;;;;;;;;;;;21.10;47.80;;;;;;5425739;26;1237;-88
2024/05/01 00:23:36;;;;;;;;;;;21.10;47.80;;;;;;5456733;26;1581;-88
2024/05/01 00:26:02;;;;;;;;;;;21.10;47.80;;;;;;5401781;26;1830;-88
2024/05/01 00:28:27;;;;;;;;;;;21.10;47.80;;;;;;5421202;26;1084;-88
2024/05/01 00:30:52;;;;;;;;;;;21.00;47.70;;;;;;5420835;26;877;-88
2024/05/01 00:33:18;;;;;;;;;;;21.10;47.70;;;;;;5398506;26;1578;-88
2024/05/01 00:35:43;;;;;;;;;;;21.00;47.50;;;;;;5456112;26;1390;-88
2024/05/01 00:38:08;;;;;;;;;;;21.10;47.60;;;;;;5398465;26;1490;-88
2024/05/01 00:40:34;;;;;;;;;;;21.00;47.50;;;;;;5420583;26;985;-88
2024/05/01 00:42:59;;;;;;;;;;;21.10;47.70;;;;;;5420727;26;934;-88
2024/05/01 00:45:25;;;;;;;;;;;21.00;47.50;;;;;;5418589;26;1468;-88
2024/05/01 00:47:50;;;;;;;;;;;21.10;47.70;;;;;;5456382;26;1827;-88
2024/05/01 00:50:15;;;;;;;;;;;21.10;47.60;;;;;;5424721;26;1289;-87
2024/05/01 00:52:41;;;;;;;;;;;21.10;47.60;;;;;;5456592;26;981;-88
2024/05/01 00:55:06;;;;;;;;;;;21.00;47.60;;;;;;5423907;26;1457;-88
2024/05/01 00:57:31;;;;;;;;;;;21.10;47.70;;;;;;5455398;26;1779;-88
2024/05/01 00:59:57;;;;;;;;;;;21.00;47.50;;;;;;5455304;26;1595;-88
2024/05/01 01:02:22;;;;;;;;;;;21.00;47.40;;;;;;5455036;26;1459;-87
2024/05/01 01:04:48;;;;;;;;;;;21.00;47.40;;;;;;5456137;26;1556;-88
2024/05/01 01:07:13;;;;;;;;;;;21.00;47.40;;;;;;5424492;26;1924;-88
2024/05/01 01:09:38;;;;;;;;;;;21.00;47.50;;;;;;5443492;26;1496;-88
2024/05/01 01:12:04;;;;;;;;;;;21.10;47.50;;;;;;5463325;26;1532;-88
2024/05/01 01:14:29;;;;;;;;;;;21.00;47.50;;;;;;5432193;26;1183;-88
2024/05/01 01:16:54;;;;;;;;;;;21.00;47.40;;;;;;5463767;26;1022;-88
2024/05/01 01:19:20;;;;;;;;;;;21.00;47.30;;;;;;5463650;26;1469;-88
2024/05/01 01:21:45;;;;;;;;;;;21.00;47.50;;;;;;5465221;26;1564;-88
2024/05/01 01:24:10;;;;;;;;;;;21.00;47.50;;;;;;5463414;26;1005;-88
2024/05/01 01:26:36;;;;;;;;;;;21.00;47.40;;;;;;5431712;26;1810;-88
2024/05/01 01:29:02;;;;;;;;;;;21.00;47.30;;;;;;5463249;26;1029;-88
2024/05/01 01:31:27;;;;;;;;;;;21.00;47.40;;;;;;5462489;26;1509;-88
2024/05/01 01:33:52;;;;;;;;;;;21.00;47.30;;;;;;5463358;26;1651;-88
2024/05/01 01:36:18;;;;;;;;;;;21.00;47.30;;;;;;5463681;26;919;-88
2024/05/01 01:38:43;;;;;;;;;;;21.00;47.40;;;;;;5463489;26;878;-88
2024/05/01 01:41:09;;;;;;;;;;;21.00;47.20;;;;;;5410439;26;1569;-88
2024/05/01 01:43:34;;;;;;;;;;;21.00;47.20;;;;;;5462874;26;1631;-87
2024/05/01 01:46:00;;;;;;;;;;;21.00;47.20;;;;;;5463246;26;1857;-88
2024/05/01 01:48:25;;;;;;;;;;;21.00;47.20;;;;;;5462991;26;962;-88
2024/05/01 01:50:50;;;;;;;;;;;21.00;47.20;;;;;;5463150;26;1013;-88
2024/05/01 01:53:16;;;;;;;;;;;21.00;47.20;;;;;;5462487;26;1523;-88
2024/05/01 01:55:41;;;;;;;;;;;21.00;47.20;;;;;;5463105;26;1646;-88
2024/05/01 01:58:06;;;;;;;;;;;21.00;47.20;;;;;;5431330;26;1233;-88
2024/05/01 02:00:32;;;;;;;;;;;21.00;47.20;;;;;;5462856;26;1115;-88
2024/05/01 02:03:02;;;;;;;;;;;21.00;47.20;;;;;;5431021;26;1477;-88
2024/05/01 02:05:27;;;;;;;;;;;21.00;47.20;;;;;;5430938;26;1688;-88
2024/05/01 02:07:53;;;;;;;;;;;21.00;47.20;;;;;;5430672;26;1832;-88
2024/05/01 02:10:18;;;;;;;;;;;21.00;47.20;;;;;;5462530;26;1076;-88
2024/05/01 02:12:43;;;;;;;;;;;21.00;47.20;;;;;;5415344;26;1510;-88
2024/05/01 02:15:09;;;;;;;;;;;21.00;47.10;;;;;;5458577;26;1460;-87
2024/05/01 02:17:34;;;;;;;;;;;21.00;47.10;;;;;;5431143;26;1272;-88
2024/05/01 02:19:59;;;;;;;;;;;21.00;47.10;;;;;;5459823;26;1193;-88
2024/05/01 02:22:25;;;;;;;;;;;21.00;47.20;;;;;;5426994;26;1161;-88
2024/05/01 02:24:50;;;;;;;;;;;21.00;47.20;;;;;;5458227;26;1604;-88
2024/05/01 02:27:15;;;;;;;;;;;21.00;47.10;;;;;;5426567;26;1826;-88
2024/05/01 02:29:41;;;;;;;;;;;21.00;47.10;;;;;;5458240;26;981;-88
2024/05/01 02:32:06;;;;;;;;;;;20.90;47.00;;;;;;5458538;26;1037;-88
2024/05/01 02:34:31;;;;;;;;;;;21.00;47.10;;;;;;5425909;26;1395;-87
2024/05/01 02:36:57;;;;;;;;;;;21.00;47.00;;;;;;5457444;26;1517;-88
2024/05/01 02:39:22;;;;;;;;;;;20.90;47.00;;;;;;5457849;26;946;-88
2024/05/01 02:41:48;;;;;;;;;;;21.00;47.00;;;;;;5457426;26;1061;-88
2024/05/01 02:44:13;;;;;;;;;;;20.90;47.00;;;;;;5454392;26;1500;-87
2024/05/01 02:46:38;;;;;;;;;;;20.90;47.00;;;;;;5425696;26;2028;-87
2024/05/01 02:49:04;;;;;;;;;;;20.90;47.00;;;;;;5459177;26;1535;-88
2024/05/01 02:51:29;;;;;;;;;;;21.00;47.10;;;;;;5425996;26;1266;-87
2024/05/01 02:53:55;;;;;;;;;;;20.90;47.00;;;;;;5457443;26;1394;-87
2024/05/01 02:56:20;;;;;;;;;;;20.90;46.80;;;;;;5434178;26;1520;-88
2024/05/01 02:58:45;;;;;;;;;;;21.00;47.00;;;;;;5421208;26;1086;-88
2024/05/01 03:01:11;;;;;;;;;;;20.90;46.80;;;;;;5390043;26;1165;-88
2024/05/01 03:03:36;;;;;;;;;;;21.00;47.00;;;;;;5437887;26;1665;-88
2024/05/01 03:06:02;;;;;;;;;;;21.00;47.00;;;;;;5426319;26;1806;-88
2024/05/01 03:08:27;;;;;;;;;;;21.00;47.00;;;;;;5458020;26;1612;-88
2024/05/01 03:10:52;;;;;;;;;;;20.90;46.90;;;;;;5426083;26;1236;-88
2024/05/01 03:13:18;;;;;;;;;;;20.90;46.90;;;;;;5456506;26;1698;-87
2024/05/01 03:15:43;;;;;;;;;;;20.90;46.90;;;;;;5457586;26;1771;-88
2024/05/01 03:18:08;;;;;;;;;;;20.90;46.90;;;;;;5398125;26;1494;-88
2024/05/01 03:20:34;;;;;;;;;;;20.90;46.90;;;;;;5421065;26;1186;-88
2024/05/01 03:22:59;;;;;;;;;;;20.90;46.90;;;;;;5421530;26;1013;-89
2024/05/01 03:25:24;;;;;;;;;;;20.90;46.90;;;;;;5440190;26;1652;-88
2024/05/01 03:27:50;;;;;;;;;;;20.90;46.80;;;;;;5450698;26;1814;-89
2024/05/01 03:30:15;;;;;;;;;;;20.90;46.80;;;;;;5455811;26;1322;-87
2024/05/01 03:32:40;;;;;;;;;;;20.90;46.80;;;;;;5388863;26;1154;-88
2024/05/01 03:35:06;;;;;;;;;;;20.90;46.90;;;;;;5458136;26;1411;-88
2024/05/01 03:37:31;;;;;;;;;;;20.90;46.80;;;;;;5434892;26;1513;-88
2024/05/01 03:39:57;;;;;;;;;;;20.90;46.90;;;;;;5404021;26;1415;-88
2024/05/01 03:42:22;;;;;;;;;;;20.90;46.80;;;;;;5421543;26;942;-88
2024/05/01 03:44:47;;;;;;;;;;;20.90;46.80;;;;;;5389911;26;1232;-88
2024/05/01 03:47:13;;;;;;;;;;;20.90;46.80;;;;;;5415639;26;1861;-88
2024/05/01 03:49:38;;;;;;;;;;;20.90;46.80;;;;;;5413071;26;1447;-87
2024/05/01 03:52:03;;;;;;;;;;;20.90;46.80;;;;;;5456923;26;1130;-88
2024/05/01 03:54:29;;;;;;;;;;;20.90;46.80;;;;;;5457013;26;906;-88
2024/05/01 03:56:54;;;;;;;;;;;20.90;46.80;;;;;;5456205;26;1691;-88
2024/05/01 03:59:20;;;;;;;;;;;20.90;46.80;;;;;;5455362;26;1541;-88
2024/05/01 04:01:45;;;;;;;;;;;20.90;46.80;;;;;;5455543;26;1514;-88
2024/05/01 04:04:11;;;;;;;;;;;20.90;46.70;;;;;;5493871;26;1057;-89
2024/05/01 04:06:36;;;;;;;;;;;20.90;46.80;;;;;;5461600;26;1850;-88
2024/05/01 04:09:01;;;;;;;;;;;20.90;46.70;;;;;;5461244;26;1545;-88
2024/05/01 04:11:27;;;;;;;;;;;20.90;46.70;;;;;;5407026;26;1718;-90
2024/05/01 04:13:52;;;;;;;;;;;20.90;46.80;;;;;;5420750;26;928;-88
2024/05/01 04:16:18;;;;;;;;;;;20.90;46.70;;;;;;5419195;26;1677;-88
2024/05/01 04:18:43;;;;;;;;;;;20.90;46.70;;;;;;5440717;26;1690;-88
2024/05/01 04:21:09;;;;;;;;;;;20.90;46.60;;;;;;5447291;26;1676;-88
2024/05/01 04:23:34;;;;;;;;;;;20.90;46.70;;;;;;5421320;26;946;-88
2024/05/01 04:25:59;;;;;;;;;;;20.90;46.70;;;;;;5389566;26;1818;-88
2024/05/01 04:28:25;;;;;;;;;;;20.90;46.70;;;;;;5420683;26;1602;-88
2024/05/01 04:30:50;;;;;;;;;;;20.90;46.70;;;;;;5425212;26;1537;-88
2024/05/01 04:33:16;;;;;;;;;;;20.90;46.70;;;;;;5456853;26;1611;-88
2024/05/01 04:35:41;;;;;;;;;;;20.90;46.70;;;;;;5456613;26;1009;-88
2024/05/01 04:38:06;;;;;;;;;;;20.90;46.70;;;;;;5456719;26;986;-88
2024/05/01 04:40:32;;;;;;;;;;;20.90;46.70;;;;;;5456327;26;840;-88
2024/05/01 04:42:57;;;;;;;;;;;20.90;46.70;;;;;;5454777;26;1465;-88
2024/05/01 04:45:22;;;;;;;;;;;20.90;46.70;;;;;;5456678;26;1045;-88
2024/05/01 04:47:48;;;;;;;;;;;20.90;46.70;;;;;;5456602;26;1843;-88
2024/05/01 04:50:13;;;;;;;;;;;20.90;46.70;;;;;;5456198;26;1696;-88
2024/05/01 04:52:38;;;;;;;;;;;20.90;46.70;;;;;;5443823;26;1561;-88
2024/05/01 04:55:04;;;;;;;;;;;20.90;46.70;;;;;;5420697;26;998;-88
2024/05/01 04:57:30;;;;;;;;;;;20.90;46.70;;;;;;5389505;26;1229;-88
2024/05/01 04:59:55;;;;;;;;;;;20.90;46.70;;;;;;5420346;26;954;-89
2024/05/01 05:02:21;;;;;;;;;;;20.90;46.70;;;;;;5443701;26;1561;-88
2024/05/01 05:04:46;;;;;;;;;;;20.90;46.70;;;;;;5450875;26;1409;-88
2024/05/01 05:07:12;;;;;;;;;;;20.90;46.70;;;;;;5445232;26;1863;-88
2024/05/01 05:09:37;;;;;;;;;;;20.90;46.70;;;;;;5457668;26;1504;-88
2024/05/01 05:12:02;;;;;;;;;;;20.90;46.70;;;;;;5454026;26;1687;-88
2024/05/01 05:14:28;;;;;;;;;;;20.90;46.70;;;;;;5435832;26;1414;-88
2024/05/01 05:16:53;;;;;;;;;;;20.90;46.70;;;;;;5453862;26;1467;-88
2024/05/01 05:19:19;;;;;;;;;;;20.90;46.70;;;;;;5493397;26;1198;-88
2024/05/01 05:21:44;;;;;;;;;;;20.90;46.70;;;;;;5509182;26;1106;-88
2024/05/01 05:24:10;;;;;;;;;;;20.90;46.70;;;;;;5483624;26;1345;-88
2024/05/01 05:26:35;;;;;;;;;;;20.90;46.70;;;;;;5481277;26;1818;-88
2024/05/01 05:29:00;;;;;;;;;;;20.90;46.70;;;;;;5478700;26;1112;-88
2024/05/01 05:31:26;;;;;;;;;;;20.90;46.80;;;;;;5478608;26;1184;-88
2024/05/01 05:33:51;;;;;;;;;;;20.90;46.70;;;;;;5478419;26;1092;-87
2024/05/01 05:36:16;;;;;;;;;;;20.80;46.70;;;;;;5483200;26;1472;-86
2024/05/01 05:38:42;;;;;;;;;;;20.90;46.70;;;;;;5513241;26;1290;-84
2024/05/01 05:41:07;;;;;;;;;;;20.90;46.80;;;;;;5514145;26;1392;-88
2024/05/01 05:43:33;;;;;;;;;;;20.90;46.80;;;;;;5515000;26;861;-88
2024/05/01 05:45:58;;;;;;;;;;;20.90;46.80;;;;;;5479294;26;1822;-88
2024/05/01 05:48:23;;;;;;;;;;;20.90;46.80;;;;;;5494547;26;1322;-87
2024/05/01 05:50:49;;;;;;;;;;;20.90;46.90;;;;;;5460249;26;1552;-89
2024/05/01 05:53:14;;;;;;;;;;;20.90;46.80;;;;;;5432456;26;973;-88
2024/05/01 05:55:41;;;;;;;;;;;20.90;46.80;;;;;;5401522;26;1348;-88
2024/05/01 05:58:06;;;;;;;;;;;20.90;46.80;;;;;;5435905;26;1621;-88
2024/05/01 06:00:32;;;;;;;;;;;20.90;46.90;;;;;;5494640;26;1649;-88
2024/05/01 06:02:57;;;;;;;;;;;20.90;47.00;;;;;;5495532;26;920;-88
2024/05/01 06:05:22;;;;;;;;;;;20.90;47.00;;;;;;5495156;26;854;-89
2024/05/01 06:07:48;;;;;;;;;;;20.90;47.00;;;;;;5463315;26;1845;-88
2024/05/01 06:10:13;;;;;;;;;;;20.90;47.00;;;;;;5433260;26;1290;-88
2024/05/01 06:12:38;;;;;;;;;;;20.90;47.00;;;;;;5422601;26;1096;-88
2024/05/01 06:15:04;;;;;;;;;;;20.90;47.10;;;;;;5422513;26;847;-89
2024/05/01 06:17:29;;;;;;;;;;;20.90;47.00;;;;;;5422584;26;978;-88
2024/05/01 06:19:55;;;;;;;;;;;20.90;47.20;;;;;;5434781;26;1706;-88
2024/05/01 06:22:20;;;;;;;;;;;20.90;47.10;;;;;;5471228;26;1584;-89
2024/05/01 06:24:46;;;;;;;;;;;21.00;47.10;;;;;;5459133;26;837;-89
2024/05/01 06:27:13;;;;;;;;;;;20.90;47.00;;;;;;5458966;26;1855;-88
2024/05/01 06:29:39;;;;;;;;;;;21.00;47.20;;;;;;5427087;26;1270;-88
2024/05/01 06:32:04;;;;;;;;;;;21.00;47.20;;;;;;5478118;26;1512;-89
2024/05/01 06:34:29;;;;;;;;;;;21.00;47.20;;;;;;5458637;26;1093;-89
2024/05/01 06:36:55;;;;;;;;;;;21.00;47.70;;;;;;5459011;26;946;-88
2024/05/01 06:39:20;;;;;;;;;;;21.00;48.20;;;;;;5458823;26;871;-89
2024/05/01 06:41:45;;;;;;;;;;;21.00;50.20;;;;;;5470905;26;1513;-87
2024/05/01 06:44:11;;;;;;;;;;;21.00;52.00;;;;;;5465057;26;1433;-88
2024/05/01 06:46:36;;;;;;;;;;;21.00;52.50;;;;;;5426722;26;1822;-87
2024/05/01 06:49:01;;;;;;;;;;;21.00;52.90;;;;;;5458576;26;1478;-89
2024/05/01 06:51:27;;;;;;;;;;;21.00;54.80;;;;;;5482500;26;1566;-88
2024/05/01 06:53:52;;;;;;;;;;;21.10;56.10;;;;;;5458141;26;1491;-89
2024/05/01 06:56:18;;;;;;;;;;;21.10;57.10;;;;;;5458421;26;1050;-88
2024/05/01 06:58:43;;;;;;;;;;;21.00;56.20;;;;;;5457775;26;1037;-88
2024/05/01 07:01:08;;;;;;;;;;;21.10;55.70;;;;;;5458088;26;1127;-88
2024/05/01 07:03:34;;;;;;;;;;;21.00;55.00;;;;;;5459041;26;1611;-88
2024/05/01 07:05:59;;;;;;;;;;;21.00;54.50;;;;;;5457236;26;1806;-88
2024/05/01 07:08:25;;;;;;;;;;;21.00;53.90;;;;;;5457863;26;936;-88
2024/05/01 07:10:50;;;;;;;;;;;21.10;53.60;;;;;;5458074;26;907;-87
2024/05/01 07:13:16;;;;;;;;;;;21.10;53.20;;;;;;5459747;26;1388;-89
2024/05/01 07:15:41;;;;;;;;;;;21.10;53.10;;;;;;5458301;26;1549;-88
2024/05/01 07:18:06;;;;;;;;;;;21.00;52.70;;;;;;5458269;26;1026;-89
2024/05/01 07:20:32;;;;;;;;;;;21.00;52.60;;;;;;5459216;26;1167;-89
2024/05/01 07:22:57;;;;;;;;;;;21.10;53.00;;;;;;5459210;26;1041;-90
2024/05/01 07:25:22;;;;;;;;;;;21.10;53.00;;;;;;5424731;26;1501;-90
2024/05/01 07:27:48;;;;;;;;;;;21.10;53.30;;;;;;5459351;26;1814;-90
2024/05/01 07:30:13;;;;;;;;;;;21.10;53.80;;;;;;5427873;26;1301;-90
2024/05/01 07:32:39;;;;;;;;;;;21.10;54.10;;;;;;5458354;26;857;-90
2024/05/01 07:35:04;;;;;;;;;;;21.10;54.20;;;;;;5429200;26;1433;-90
2024/05/01 07:37:30;;;;;;;;;;;21.10;54.30;;;;;;5463624;26;1298;-90
2024/05/01 07:39:55;;;;;;;;;;;21.20;54.20;;;;;;5495672;26;1049;-89
2024/05/01 07:42:21;;;;;;;;;;;21.20;54.10;;;;;;5495709;26;895;-90
2024/05/01 07:44:47;;;;;;;;;;;21.20;54.10;;;;;;5495855;26;1025;-90
2024/05/01 07:47:12;;;;;;;;;;;21.20;54.00;;;;;;5445239;26;1859;-89
2024/05/01 07:49:37;;;;;;;;;;;21.20;53.90;;;;;;5458848;26;1508;-90
2024/05/01 07:52:04;;;;;;;;;;;21.20;53.80;;;;;;5458332;26;1109;-90
2024/05/01 07:54:30;;;;;;;;;;;21.20;53.90;;;;;;5426883;26;1223;-90
2024/05/01 07:56:55;;;;;;;;;;;21.20;53.80;;;;;;5460079;26;1369;-89
2024/05/01 07:59:20;;;;;;;;;;;21.20;53.80;;;;;;5426927;26;1300;-90
2024/05/01 08:01:46;;;;;;;;;;;21.20;54.00;;;;;;5459789;26;1224;-90
2024/05/01 08:04:11;;;;;;;;;;;21.20;53.90;;;;;;5460120;26;914;-91
2024/05/01 08:06:36;;;;;;;;;;;21.20;54.10;;;;;;5459929;26;1856;-91
2024/05/01 08:09:02;;;;;;;;;;;21.20;54.00;;;;;;5424533;26;1498;-91
2024/05/01 08:11:27;;;;;;;;;;;21.20;53.90;;;;;;5427002;26;1180;-90
2024/05/01 08:13:52;;;;;;;;;;;21.20;53.90;;;;;;5457994;26;869;-89
2024/05/01 08:16:18;;;;;;;;;;;21.20;53.80;;;;;;5458356;26;981;-90
2024/05/01 08:18:43;;;;;;;;;;;21.20;53.70;;;;;;5470088;26;1303;-91
2024/05/01 08:21:09;;;;;;;;;;;21.20;53.80;;;;;;5462684;26;1303;-91
2024/05/01 08:23:34;;;;;;;;;;;21.20;53.80;;;;;;5463158;26;1217;-92
2024/05/01 08:25:59;;;;;;;;;;;21.30;54.00;;;;;;5494268;26;1818;-91
2024/05/01 08:28:25;;;;;;;;;;;21.20;52.20;;;;;;5461677;26;1524;-92
2024/05/01 08:30:50;;;;;;;;;;;21.20;53.70;;;;;;5460639;26;1668;-92
2024/05/01 08:33:15;;;;;;;;;;;21.20;53.70;;;;;;5427282;26;1193;-91
2024/05/01 08:35:41;;;;;;;;;;;21.30;53.60;;;;;;5458797;26;851;-91
2024/05/01 08:38:06;;;;;;;;;;;21.30;53.50;;;;;;5458314;26;997;-90
2024/05/01 08:40:32;;;;;;;;;;;21.30;53.50;;;;;;5460333;26;1371;-91
2024/05/01 08:42:57;;;;;;;;;;;21.20;53.40;;;;;;5459151;26;883;-91
2024/05/01 08:45:22;;;;;;;;;;;21.30;53.40;;;;;;5458746;26;1093;-90
2024/05/01 08:47:49;;;;;;;;;;;21.30;53.30;;;;;;5458839;26;1821;-91
2024/05/01 08:50:15;;;;;;;;;;;21.30;53.30;;;;;;5456689;26;1623;-90
2024/05/01 08:52:40;;;;;;;;;;;21.30;53.30;;;;;;5422938;26;947;-90
2024/05/01 08:55:06;;;;;;;;;;;21.30;53.20;;;;;;5441187;26;1354;-90
2024/05/01 08:57:31;;;;;;;;;;;21.30;53.20;;;;;;5459755;26;1533;-89
2024/05/01 08:59:56;;;;;;;;;;;21.30;53.10;;;;;;5494933;26;921;-89
2024/05/01 09:02:22;;;;;;;;;;;21.30;53.10;;;;;;5469114;26;1463;-89
2024/05/01 09:04:47;;;;;;;;;;;21.30;53.10;;;;;;5426497;26;1177;-90
2024/05/01 09:07:13;;;;;;;;;;;21.30;53.10;;;;;;5457870;26;1818;-89
2024/05/01 09:09:38;;;;;;;;;;;21.30;53.10;;;;;;5457437;26;997;-89
2024/05/01 09:12:03;;;;;;;;;;;21.30;53.10;;;;;;5422976;26;1283;-89
2024/05/01 09:14:29;;;;;;;;;;;21.30;53.10;;;;;;5457621;26;1103;-89
2024/05/01 09:16:55;;;;;;;;;;;21.30;53.10;;;;;;5425849;26;1315;-89
2024/05/01 09:19:20;;;;;;;;;;;21.30;53.00;;;;;;5458090;26;1143;-89
2024/05/01 09:21:45;;;;;;;;;;;21.30;53.00;;;;;;5458908;26;963;-90
2024/05/01 09:24:11;;;;;;;;;;;21.30;52.90;;;;;;5485061;26;1523;-89
2024/05/01 09:26:36;;;;;;;;;;;21.30;52.80;;;;;;5495703;26;1814;-90
2024/05/01 09:29:01;;;;;;;;;;;21.30;52.80;;;;;;5497695;26;1048;-89
2024/05/01 09:31:27;;;;;;;;;;;21.30;52.70;;;;;;5503248;26;1005;-89
2024/05/01 09:33:52;;;;;;;;;;;21.30;52.70;;;;;;5468500;26;1417;-88
2024/05/01 09:36:18;;;;;;;;;;;21.30;52.70;;;;;;5450902;26;1353;-89
2024/05/01 09:38:43;;;;;;;;;;;21.30;52.70;;;;;;5480714;26;834;-89
2024/05/01 09:41:08;;;;;;;;;;;21.30;52.70;;;;;;5482329;26;814;-88
2024/05/01 09:43:34;;;;;;;;;;;21.30;52.60;;;;;;5482400;26;865;-86
2024/05/01 09:45:59;;;;;;;;;;;21.40;52.70;;;;;;5482085;26;1839;-89
2024/05/01 09:48:25;;;;;;;;;;;21.40;52.70;;;;;;5451994;26;1189;-90
2024/05/01 09:50:50;;;;;;;;;;;21.30;52.60;;;;;;5451687;26;1184;-87
2024/05/01 09:53:16;;;;;;;;;;;21.40;52.70;;;;;;5450345;26;1207;-90
2024/05/01 09:55:41;;;;;;;;;;;21.40;52.90;;;;;;5482187;26;860;-91
2024/05/01 09:58:06;;;;;;;;;;;21.40;53.10;;;;;;5451699;26;1245;-91
2024/05/01 10:00:32;;;;;;;;;;;21.40;53.20;;;;;;5451696;26;1273;-89
2024/05/01 10:03:00;;;;;;;;;;;21.40;53.40;;;;;;5478876;26;866;-91
2024/05/01 10:05:25;;;;;;;;;;;21.50;53.80;;;;;;5477084;26;916;-91
2024/05/01 10:07:55;;;;;;;;;;;21.40;53.80;;;;;;5476032;26;1825;-91
2024/05/01 10:10:21;;;;;;;;;;;21.50;54.00;;;;;;5463927;26;934;-91
2024/05/01 10:12:46;;;;;;;;;;;21.50;54.00;;;;;;5460691;26;1037;-91
2024/05/01 10:15:11;;;;;;;;;;;21.50;54.00;;;;;;5427861;26;1332;-92
2024/05/01 10:17:37;;;;;;;;;;;21.50;54.00;;;;;;5428660;26;1138;-91
2024/05/01 10:20:02;;;;;;;;;;;21.50;54.00;;;;;;5428967;26;1224;-93
2024/05/01 10:22:27;;;;;;;;;;;21.50;53.90;;;;;;5432657;26;1265;-91
2024/05/01 10:24:54;;;;;;;;;;;21.50;53.90;;;;;;5464224;26;768;-90
2024/05/01 10:27:19;;;;;;;;;;;21.50;53.90;;;;;;5464349;26;1813;-91
2024/05/01 10:29:44;;;;;;;;;;;21.60;54.00;;;;;;5462754;26;1088;-92
2024/05/01 10:32:10;;;;;;;;;;;21.60;53.90;;;;;;5460293;26;993;-92
2024/05/01 10:34:35;;;;;;;;;;;21.60;53.80;;;;;;5460667;26;871;-91
2024/05/01 10:37:02;;;;;;;;;;;21.60;53.80;;;;;;5460077;26;976;-91
2024/05/01 10:39:28;;;;;;;;;;;21.60;53.60;;;;;;5428380;26;1310;-91
2024/05/01 10:41:53;;;;;;;;;;;21.60;53.60;;;;;;5464459;26;938;-91
2024/05/01 10:44:18;;;;;;;;;;;21.60;53.50;;;;;;5464107;26;887;-91
2024/05/01 10:46:44;;;;;;;;;;;21.60;53.50;;;;;;5463836;26;1806;-92
2024/05/01 10:49:09;;;;;;;;;;;21.70;53.60;;;;;;5462948;26;1156;-91
2024/05/01 10:51:35;;;;;;;;;;;21.70;53.60;;;;;;5463541;26;1033;-91
2024/05/01 10:54:00;;;;;;;;;;;21.70;53.60;;;;;;5462693;26;925;-91
2024/05/01 10:56:25;;;;;;;;;;;21.70;53.70;;;;;;5462368;26;934;-91
2024/05/01 10:58:51;;;;;;;;;;;21.70;53.70;;;;;;5460926;26;921;-90
2024/05/01 11:01:16;;;;;;;;;;;21.70;53.70;;;;;;5429342;26;1308;-91
2024/05/01 11:03:42;;;;;;;;;;;21.70;53.70;;;;;;5460180;26;989;-92
2024/05/01 11:06:07;;;;;;;;;;;21.70;53.60;;;;;;5428822;26;1817;-91
2024/05/01 11:08:32;;;;;;;;;;;21.80;53.60;;;;;;5461030;26;965;-92
2024/05/01 11:10:58;;;;;;;;;;;21.80;53.50;;;;;;5461399;26;985;-92
2024/05/01 11:13:23;;;;;;;;;;;21.80;53.50;;;;;;5430919;26;1190;-92
2024/05/01 11:15:48;;;;;;;;;;;21.80;53.40;;;;;;5430625;26;1332;-93
2024/05/01 11:18:14;;;;;;;;;;;21.80;53.40;;;;;;5462185;26;950;-92
2024/05/01 11:20:39;;;;;;;;;;;21.80;53.30;;;;;;5462416;26;1151;-93
2024/05/01 11:23:04;;;;;;;;;;;21.80;53.30;;;;;;5462602;26;955;-92
2024/05/01 11:25:30;;;;;;;;;;;21.80;53.20;;;;;;5463043;26;905;-93
2024/05/01 11:27:55;;;;;;;;;;;21.80;53.10;;;;;;5463208;26;1814;-93
2024/05/01 11:30:21;;;;;;;;;;;21.90;53.10;;;;;;5462647;26;925;-93
2024/05/01 11:32:46;;;;;;;;;;;21.90;53.10;;;;;;5462584;26;862;-92
2024/05/01 11:35:11;;;;;;;;;;;21.90;53.00;;;;;;5461740;26;1017;-93
2024/05/01 11:37:37;;;;;;;;;;;21.90;52.90;;;;;;5462438;26;1014;-92
2024/05/01 11:40:03;;;;;;;;;;;21.90;52.80;;;;;;5430702;26;1182;-91
2024/05/01 11:42:29;;;;;;;;;;;21.90;52.90;;;;;;5429892;26;1182;-92
2024/05/01 11:44:54;;;;;;;;;;;21.90;52.90;;;;;;5461653;26;1057;-92
2024/05/01 11:47:19;;;;;;;;;;;21.90;52.70;;;;;;5460990;26;1798;-92
2024/05/01 11:49:45;;;;;;;;;;;22.00;52.60;;;;;;5429206;26;1297;-92
2024/05/01 11:52:10;;;;;;;;;;;21.90;52.40;;;;;;5459920;26;962;-92
2024/05/01 11:54:36;;;;;;;;;;;22.00;52.30;;;;;;5460082;26;982;-92
2024/05/01 11:57:01;;;;;;;;;;;21.90;52.10;;;;;;5460113;26;1246;-90
2024/05/01 11:59:26;;;;;;;;;;;21.90;52.20;;;;;;5459439;26;973;-92
2024/05/01 12:01:52;;;;;;;;;;;22.00;52.30;;;;;;5460482;26;1135;-92
2024/05/01 12:04:17;;;;;;;;;;;22.00;52.20;;;;;;5429968;26;1233;-91
2024/05/01 12:06:43;;;;;;;;;;;21.90;52.00;;;;;;5460873;26;1839;-91
2024/05/01 12:09:08;;;;;;;;;;;21.90;52.00;;;;;;5429009;26;1318;-91
2024/05/01 12:11:33;;;;;;;;;;;21.90;51.90;;;;;;5460961;26;871;-91
2024/05/01 12:13:59;;;;;;;;;;;21.90;51.80;;;;;;5429131;26;1300;-92
2024/05/01 12:16:24;;;;;;;;;;;21.90;51.70;;;;;;5428084;26;1296;-92
2024/05/01 12:18:49;;;;;;;;;;;21.90;51.70;;;;;;5428589;26;1275;-92
2024/05/01 12:21:15;;;;;;;;;;;22.00;51.70;;;;;;5461565;26;997;-91
2024/05/01 12:23:41;;;;;;;;;;;21.90;51.60;;;;;;5460025;26;1084;-90
2024/05/01 12:26:06;;;;;;;;;;;22.00;51.50;;;;;;5459873;26;1813;-92
2024/05/01 12:28:32;;;;;;;;;;;21.90;51.40;;;;;;5461610;26;1045;-92
2024/05/01 12:30:57;;;;;;;;;;;21.90;51.30;;;;;;5460675;26;842;-91
2024/05/01 12:33:22;;;;;;;;;;;22.00;51.40;;;;;;5461554;26;985;-91
2024/05/01 12:35:48;;;;;;;;;;;22.00;51.30;;;;;;5463005;26;894;-91
2024/05/01 12:38:13;;;;;;;;;;;22.00;51.30;;;;;;5461926;26;1091;-92
2024/05/01 12:40:38;;;;;;;;;;;22.00;51.30;;;;;;5462043;26;938;-92
2024/05/01 12:43:04;;;;;;;;;;;22.00;51.30;;;;;;5462694;26;1070;-92
2024/05/01 12:45:29;;;;;;;;;;;22.00;51.20;;;;;;5431100;26;1283;-91
2024/05/01 12:47:55;;;;;;;;;;;22.00;51.20;;;;;;5462381;26;1812;-93
2024/05/01 12:50:20;;;;;;;;;;;21.90;51.00;;;;;;5461882;26;887;-91
2024/05/01 12:52:45;;;;;;;;;;;22.00;51.10;;;;;;5462610;26;938;-91
2024/05/01 12:55:11;;;;;;;;;;;22.00;51.10;;;;;;5462128;26;1041;-91
2024/05/01 12:57:36;;;;;;;;;;;22.00;51.00;;;;;;5461925;26;1037;-92
2024/05/01 13:00:01;;;;;;;;;;;21.90;50.90;;;;;;5462250;26;1113;-91
2024/05/01 13:02:27;;;;;;;;;;;22.00;50.90;;;;;;5461370;26;1241;-90
2024/05/01 13:04:52;;;;;;;;;;;21.90;50.80;;;;;;5429675;26;1189;-92
2024/05/01 13:07:17;;;;;;;;;;;22.00;50.80;;;;;;5462571;26;1810;-92
2024/05/01 13:09:43;;;;;;;;;;;22.00;50.70;;;;;;5431462;26;1271;-92
2024/05/01 13:12:08;;;;;;;;;;;22.00;50.70;;;;;;5462078;26;1123;-91
2024/05/01 13:14:33;;;;;;;;;;;22.00;50.70;;;;;;5461965;26;1040;-92
2024/05/01 13:16:59;;;;;;;;;;;22.00;50.70;;;;;;5461284;26;942;-92
2024/05/01 13:19:25;;;;;;;;;;;22.00;50.60;;;;;;5429533;26;1387;-91
2024/05/01 13:21:50;;;;;;;;;;;22.00;50.60;;;;;;5461580;26;840;-92
2024/05/01 13:24:15;;;;;;;;;;;22.00;50.60;;;;;;5461177;26;1032;-91
2024/05/01 13:26:41;;;;;;;;;;;22.00;50.60;;;;;;5462756;26;1813;-92
2024/05/01 13:29:06;;;;;;;;;;;22.00;50.60;;;;;;5465686;26;1049;-92
2024/05/01 13:31:32;;;;;;;;;;;22.00;50.50;;;;;;5429739;26;1223;-91
2024/05/01 13:33:57;;;;;;;;;;;22.00;50.40;;;;;;5426376;26;1347;-92
2024/05/01 13:36:23;;;;;;;;;;;22.00;50.40;;;;;;5457853;26;850;-92
2024/05/01 13:38:48;;;;;;;;;;;22.00;50.40;;;;;;5426276;26;1324;-92
2024/05/01 13:41:14;;;;;;;;;;;22.00;50.40;;;;;;5458084;26;976;-92
2024/05/01 13:43:39;;;;;;;;;;;22.00;50.40;;;;;;5426112;26;1283;-93
2024/05/01 13:46:04;;;;;;;;;;;22.00;50.30;;;;;;5457982;26;1795;-91
2024/05/01 13:48:30;;;;;;;;;;;22.00;50.30;;;;;;5438426;26;1205;-92
2024/05/01 13:50:55;;;;;;;;;;;22.00;50.20;;;;;;5448095;26;1236;-91
2024/05/01 13:53:21;;;;;;;;;;;22.00;50.20;;;;;;5448037;26;1313;-92
2024/05/01 13:55:46;;;;;;;;;;;22.10;50.30;;;;;;5478407;26;982;-92
2024/05/01 13:58:11;;;;;;;;;;;22.10;50.30;;;;;;5447697;26;1291;-91
2024/05/01 14:00:37;;;;;;;;;;;22.10;50.40;;;;;;5477843;26;1177;-92
2024/05/01 14:03:02;;;;;;;;;;;22.10;50.20;;;;;;5447932;26;1221;-91
2024/05/01 14:05:27;;;;;;;;;;;22.10;50.30;;;;;;5478260;26;1052;-92
2024/05/01 14:07:53;;;;;;;;;;;22.10;50.30;;;;;;5478087;26;1841;-92
2024/05/01 14:10:18;;;;;;;;;;;22.10;50.30;;;;;;5478090;26;1005;-90
2024/05/01 14:12:43;;;;;;;;;;;22.10;50.30;;;;;;5477537;26;1116;-92
2024/05/01 14:15:09;;;;;;;;;;;22.10;50.30;;;;;;5477725;26;1057;-92
2024/05/01 14:17:34;;;;;;;;;;;22.10;50.20;;;;;;5481004;26;1041;-92
2024/05/01 14:20:00;;;;;;;;;;;22.10;50.10;;;;;;5478382;26;1203;-91
2024/05/01 14:22:27;;;;;;;;;;;22.10;50.20;;;;;;5477197;26;1238;-91